KOWD/OWD METAR and TAF weather

Enter ICAO airport designator
Station Type Date Time Source
KOWD METAR 2021/03/08 01:53 UTC NOAA

KOWD 080153Z AUTO 00000KT 10SM CLR M04/M12 A3032 RMK AO2 SLP269 T10441117


Station Type Date Time Source
KOWD Decoded METAR 2021/03/08 01:53 UTC NOAA

NORWOOD MEMORIAL AIRPORT, MA, United States (KOWD) 42-11N 71-10W 19M
Mar 07, 2021 - 08:53 PM EST / 2021.03.08 0153 UTC
Wind: Calm:0
Visibility: 10 mile(s):0
Sky conditions: clear
Temperature: 24.1 F (-4.4 C)
Dew Point: 10.9 F (-11.7 C)
Relative Humidity: 56%
Pressure (altimeter): 30.32 in. Hg (1026 hPa)
ob: KOWD 080153Z AUTO 00000KT 10SM CLR M04/M12 A3032 RMK AO2 SLP269 T10441117
cycle: 2

Station Type Date Time Source
KOWD TAF UTC NOAA

Error!

Example: see airport list